KBDR/BDR METAR and TAF weather

Enter ICAO airport designator
Station Type Date Time Source
KBDR METAR 2019/06/17 12:52 UTC NOAA

KBDR 171252Z 03008KT 10SM CLR 22/18 A2994 RMK AO2 SLP138 T02220178


Station Type Date Time Source
KBDR Decoded METAR 2019/06/17 12:52 UTC NOAA

SIKORSKY MEMORIAL AIRPORT, CT, United States (KBDR) 41-10N 073-08W 7M
Jun 17, 2019 - 08:52 AM EDT / 2019.06.17 1252 UTC
Wind: from the NNE (030 degrees) at 9 MPH (8 KT):0
Visibility: 10 mile(s):0
Sky conditions: clear
Temperature: 72.0 F (22.2 C)
Dew Point: 64.0 F (17.8 C)
Relative Humidity: 76%
Pressure (altimeter): 29.94 in. Hg (1013 hPa)
ob: KBDR 171252Z 03008KT 10SM CLR 22/18 A2994 RMK AO2 SLP138 T02220178
cycle: 13

Station Type Date Time Source
KBDR TAF 2019/06/17 14:34 UTC NOAA

TAF
AMD KBDR 171331Z 1714/1812 10006KT P6SM FEW015 BKN040
FM171700 19007KT P6SM SCT040 BKN100
FM180000 16005KT 6SM -SHRA BR SCT025 BKN040
FM180300 16005KT 5SM -SHRA BR SCT015 BKN025

Example: see airport list